createdAt,value
2022-10-22T00:02:07.998Z,98252.69
2022-10-22T00:04:37.461Z,98248.28
2022-10-22T00:07:06.845Z,98259.50
2022-10-22T00:09:36.012Z,98257.09
2022-10-22T00:12:06.299Z,98254.78
2022-10-22T00:14:35.341Z,98253.25
2022-10-22T00:17:08.037Z,98255.66
2022-10-22T00:19:39.912Z,98254.38
2022-10-22T00:22:10.230Z,98250.06
2022-10-22T00:24:40.754Z,98249.28
2022-10-22T00:27:12.524Z,98233.34
2022-10-22T00:29:41.743Z,98237.38
2022-10-22T00:32:12.112Z,98245.38
2022-10-22T00:34:41.172Z,98244.56
2022-10-22T00:37:10.223Z,98252.56
2022-10-22T00:39:39.329Z,98240.47
2022-10-22T00:42:08.373Z,98252.63
2022-10-22T00:45:07.324Z,98252.56
2022-10-22T00:47:41.426Z,98256.59
2022-10-22T00:50:15.468Z,98251.75
2022-10-22T00:52:44.707Z,98240.16
2022-10-22T00:55:15.420Z,98240.06
2022-10-22T00:57:45.030Z,98232.84
2022-10-22T01:00:15.684Z,98230.91
2022-10-22T01:02:46.452Z,98223.31
2022-10-22T01:05:15.547Z,98220.13
2022-10-22T01:07:47.981Z,98226.44
2022-10-22T01:10:32.457Z,98233.94
2022-10-22T01:13:17.719Z,98216.75
2022-10-22T01:15:53.262Z,98209.31
2022-10-22T01:18:34.085Z,98216.91
2022-10-22T01:21:16.443Z,98212.47
2022-10-22T01:24:37.223Z,98200.50
2022-10-22T01:27:22.752Z,98210.72
2022-10-22T01:29:56.786Z,98195.53
2022-10-22T01:32:30.503Z,98198.09
2022-10-22T01:35:05.484Z,98190.47
2022-10-22T01:37:40.432Z,98180.47
2022-10-22T01:40:11.806Z,98174.19
2022-10-22T01:42:40.915Z,98177.38
2022-10-22T01:45:15.806Z,98174.94
2022-10-22T01:47:56.337Z,98168.94
2022-10-22T01:50:56.214Z,98163.25
2022-10-22T01:53:35.446Z,98167.06
2022-10-22T01:56:19.283Z,98154.31
2022-10-22T01:58:59.559Z,98141.00
2022-10-22T02:01:36.650Z,98146.31
2022-10-22T02:04:13.119Z,98143.09
2022-10-22T02:06:45.581Z,98142.31
2022-10-22T02:09:17.832Z,98153.00
2022-10-22T02:11:48.854Z,98137.41
2022-10-22T02:14:20.524Z,98148.03
2022-10-22T02:16:52.233Z,98135.22
2022-10-22T02:19:28.620Z,98129.59
2022-10-22T02:21:57.848Z,98119.94
2022-10-22T02:24:27.298Z,98111.19
2022-10-22T02:27:08.080Z,98100.81
2022-10-22T02:29:41.555Z,98129.19
2022-10-22T02:32:17.748Z,98111.22
2022-10-22T02:34:49.223Z,98131.31
2022-10-22T02:37:19.668Z,98115.31
2022-10-22T02:39:50.037Z,98132.44
2022-10-22T02:42:19.453Z,98118.50
2022-10-22T02:44:48.491Z,98124.56
2022-10-22T02:47:18.961Z,98122.16
2022-10-22T02:49:48.142Z,98116.94
2022-10-22T02:52:17.231Z,98123.34
2022-10-22T02:54:46.231Z,98112.97
2022-10-22T02:57:15.308Z,98107.78
2022-10-22T02:59:44.413Z,98104.22
2022-10-22T03:02:13.411Z,98105.34
2022-10-22T03:04:44.660Z,98105.81
2022-10-22T03:07:13.723Z,98107.84
2022-10-22T03:09:42.870Z,98102.66
2022-10-22T03:12:11.923Z,98103.44
2022-10-22T03:14:41.008Z,98101.31
2022-10-22T03:17:10.066Z,98096.13
2022-10-22T03:19:39.220Z,98096.22
2022-10-22T03:22:14.989Z,98098.56
2022-10-22T03:24:47.619Z,98089.81
2022-10-22T03:27:19.780Z,98098.63
2022-10-22T03:29:51.532Z,98067.81
2022-10-22T03:32:21.109Z,98108.09
2022-10-22T03:34:50.178Z,98072.25
2022-10-22T03:37:21.193Z,98088.25
2022-10-22T03:39:50.429Z,98084.25
2022-10-22T03:42:19.708Z,98091.13
2022-10-22T03:44:49.133Z,98085.94
2022-10-22T03:47:18.299Z,98093.16
2022-10-22T03:49:47.402Z,98083.16
2022-10-22T03:52:16.715Z,98088.38
2022-10-22T03:54:47.290Z,98086.81
2022-10-22T03:57:16.283Z,98089.63
2022-10-22T03:59:47.619Z,98072.44
2022-10-22T04:02:16.655Z,98075.66
2022-10-22T04:04:45.687Z,98095.63
2022-10-22T04:07:14.886Z,98108.44
2022-10-22T04:09:43.971Z,98105.28
2022-10-22T04:12:14.436Z,98106.06
2022-10-22T04:14:43.494Z,98107.69
2022-10-22T04:17:12.532Z,98093.63
2022-10-22T04:19:44.212Z,98098.47
2022-10-22T04:22:13.219Z,98102.06
2022-10-22T04:24:42.234Z,98099.69
2022-10-22T04:27:11.307Z,98093.69
2022-10-22T04:29:41.764Z,98116.47
2022-10-22T04:32:10.834Z,98119.66
2022-10-22T04:34:39.872Z,98110.06
2022-10-22T04:37:08.889Z,98112.88
2022-10-22T04:39:37.969Z,98110.88
2022-10-22T04:42:07.710Z,98101.28
2022-10-22T04:44:36.816Z,98092.50
2022-10-22T04:47:07.246Z,98083.72
2022-10-22T04:49:36.345Z,98088.50
2022-10-22T04:52:05.488Z,98089.28
2022-10-22T04:54:34.509Z,98087.75
2022-10-22T04:57:03.498Z,98096.94
2022-10-22T04:59:32.602Z,98101.72
2022-10-22T05:02:01.703Z,98097.72
2022-10-22T05:04:32.176Z,98111.28
2022-10-22T05:07:01.252Z,98094.50
2022-10-22T05:09:30.372Z,98097.69
2022-10-22T05:11:59.368Z,98077.34
2022-10-22T05:14:28.405Z,98088.53
2022-10-22T05:16:57.363Z,98086.94
2022-10-22T05:19:30.872Z,98076.13
2022-10-22T05:22:05.448Z,98085.34
2022-10-22T05:24:37.135Z,98086.53
2022-10-22T05:27:06.543Z,98076.59
2022-10-22T05:29:35.677Z,98074.19
2022-10-22T05:32:05.037Z,98074.19
2022-10-22T05:34:36.175Z,98079.78
2022-10-22T05:37:06.742Z,98080.16
2022-10-22T05:39:37.016Z,98080.56
2022-10-22T05:42:06.176Z,98087.75
2022-10-22T05:44:35.489Z,98074.56
2022-10-22T05:47:04.671Z,98070.97
2022-10-22T05:49:34.022Z,98079.75
2022-10-22T05:52:03.170Z,98074.16
2022-10-22T05:54:33.776Z,98074.13
2022-10-22T05:57:02.835Z,98081.28
2022-10-22T05:59:31.905Z,98096.47
2022-10-22T06:02:01.079Z,98098.84
2022-10-22T06:04:30.339Z,98110.03
2022-10-22T06:06:59.688Z,98102.00
2022-10-22T06:09:31.984Z,98099.16
2022-10-22T06:12:02.515Z,98105.97
2022-10-22T06:14:32.658Z,98093.19
2022-10-22T06:17:01.976Z,98097.94
2022-10-22T06:19:31.376Z,98113.06
2022-10-22T06:22:00.608Z,98121.06
2022-10-22T06:24:29.719Z,98123.34
2022-10-22T06:26:58.773Z,98110.53
2022-10-22T06:29:29.716Z,98121.72
2022-10-22T06:31:58.845Z,98132.84
2022-10-22T06:34:28.356Z,98134.44
2022-10-22T06:36:57.416Z,98127.22
2022-10-22T06:39:35.351Z,98121.56
2022-10-22T06:42:05.720Z,98122.41
2022-10-22T06:44:38.211Z,98118.69
2022-10-22T06:47:07.421Z,98122.97
2022-10-22T06:49:36.522Z,98122.13
2022-10-22T06:52:05.700Z,98126.91
2022-10-22T06:54:34.915Z,98128.31
2022-10-22T06:57:03.959Z,98132.06
2022-10-22T06:59:33.151Z,98139.53
2022-10-22T07:02:04.917Z,98143.94
2022-10-22T07:04:34.197Z,98143.88
2022-10-22T07:07:03.281Z,98144.78
2022-10-22T07:09:32.309Z,98159.03
2022-10-22T07:12:02.359Z,98157.75
2022-10-22T07:14:31.627Z,98162.81
2022-10-22T07:17:00.621Z,98155.19
2022-10-22T07:19:31.531Z,98152.13
2022-10-22T07:22:00.773Z,98155.16
2022-10-22T07:24:30.057Z,98165.09
2022-10-22T07:26:59.634Z,98168.22
2022-10-22T07:29:28.831Z,98171.75
2022-10-22T07:31:57.852Z,98162.44
2022-10-22T07:34:26.843Z,98163.28
2022-10-22T07:36:57.844Z,98164.75
2022-10-22T07:39:27.059Z,98177.50
2022-10-22T07:41:56.082Z,98189.50
2022-10-22T07:44:25.161Z,98191.19
2022-10-22T07:46:54.167Z,98176.72
2022-10-22T07:49:23.236Z,98190.19
2022-10-22T07:51:52.304Z,98181.16
2022-10-22T07:54:22.691Z,98182.53
2022-10-22T07:56:51.815Z,98189.50
2022-10-22T07:59:21.104Z,98194.22
2022-10-22T08:01:50.185Z,98204.41
2022-10-22T08:04:19.252Z,98209.84
2022-10-22T08:06:48.232Z,98206.78
2022-10-22T08:09:17.340Z,98219.66
2022-10-22T08:11:47.691Z,98222.19
2022-10-22T08:14:17.529Z,98228.03
2022-10-22T08:16:46.602Z,98234.59
2022-10-22T08:19:18.894Z,98240.44
2022-10-22T08:21:48.104Z,98240.69
2022-10-22T08:24:17.342Z,98254.41
2022-10-22T08:26:48.078Z,98249.56
2022-10-22T08:29:17.142Z,98259.63
2022-10-22T08:31:46.209Z,98263.34
2022-10-22T08:34:15.309Z,98259.41
2022-10-22T08:36:50.664Z,98250.53
2022-10-22T08:39:19.739Z,98265.31
2022-10-22T08:42:06.089Z,98254.81
2022-10-22T08:45:04.699Z,98258.94
2022-10-22T08:47:49.638Z,98265.19
2022-10-22T08:50:25.492Z,98261.63
2022-10-22T08:53:00.555Z,98259.75
2022-10-22T08:55:36.512Z,98251.06
2022-10-22T08:58:20.395Z,98252.66
2022-10-22T09:00:59.358Z,98259.31
2022-10-22T09:03:51.563Z,98264.66
2022-10-22T09:06:25.306Z,98266.88
2022-10-22T09:08:56.096Z,98282.03
2022-10-22T09:11:31.833Z,98274.66
2022-10-22T09:14:03.733Z,98274.53
2022-10-22T09:16:40.335Z,98287.63
2022-10-22T09:19:24.032Z,98291.09
2022-10-22T09:22:03.036Z,98285.38
2022-10-22T09:24:38.559Z,98277.84
2022-10-22T09:27:14.067Z,98275.03
2022-10-22T09:29:46.053Z,98280.75
2022-10-22T09:32:15.818Z,98287.47
2022-10-22T09:34:46.131Z,98298.94
2022-10-22T09:37:19.790Z,98291.75
2022-10-22T09:39:52.764Z,98302.53
2022-10-22T09:42:23.525Z,98295.81
2022-10-22T09:44:57.651Z,98290.09
2022-10-22T09:47:43.142Z,98281.63
2022-10-22T09:50:27.307Z,98279.59
2022-10-22T09:53:02.857Z,98277.97
2022-10-22T09:55:34.276Z,98281.69
2022-10-22T09:58:03.651Z,98286.06
2022-10-22T10:00:34.308Z,98287.97
2022-10-22T10:03:05.533Z,98292.69
2022-10-22T10:05:37.703Z,98286.06
2022-10-22T10:08:15.426Z,98297.31
2022-10-22T10:10:48.837Z,98303.25
2022-10-22T10:13:43.570Z,98304.03
2022-10-22T10:16:31.925Z,98310.00
2022-10-22T10:19:22.814Z,98310.13
2022-10-22T10:22:04.693Z,98310.56
2022-10-22T10:25:00.890Z,98312.09
2022-10-22T10:27:36.492Z,98309.84
2022-10-22T10:30:14.378Z,98315.72
2022-10-22T10:33:11.962Z,98316.53
2022-10-22T10:35:56.897Z,98309.97
2022-10-22T10:38:40.726Z,98297.00
2022-10-22T10:41:20.263Z,98290.97
2022-10-22T10:44:32.157Z,98306.19
2022-10-22T10:47:13.228Z,98320.59
2022-10-22T10:49:45.274Z,98322.31
2022-10-22T10:52:27.107Z,98320.25
2022-10-22T10:55:07.999Z,98332.75
2022-10-22T10:57:49.706Z,98333.44
2022-10-22T11:00:21.779Z,98328.56
2022-10-22T11:03:39.167Z,98334.25
2022-10-22T11:06:13.505Z,98338.88
2022-10-22T11:08:50.070Z,98343.28
2022-10-22T11:11:25.174Z,98338.16
2022-10-22T11:13:59.323Z,98350.75
2022-10-22T11:16:34.007Z,98353.13
2022-10-22T11:19:10.049Z,98355.06
2022-10-22T11:21:47.052Z,98357.94
2022-10-22T11:24:24.568Z,98352.47
2022-10-22T11:27:00.924Z,98365.88
2022-10-22T11:29:36.368Z,98366.00
2022-10-22T11:32:09.832Z,98365.53
2022-10-22T11:34:45.796Z,98362.59
2022-10-22T11:37:17.884Z,98354.13
2022-10-22T11:39:52.031Z,98358.91
2022-10-22T11:42:23.743Z,98352.69
2022-10-22T11:45:05.631Z,98355.94
2022-10-22T11:47:42.930Z,98351.50
2022-10-22T11:50:25.484Z,98352.94
2022-10-22T11:53:07.894Z,98347.53
2022-10-22T11:55:48.448Z,98348.72
2022-10-22T11:58:35.397Z,98337.44
2022-10-22T12:01:28.970Z,98340.53
2022-10-22T12:04:23.412Z,98348.13
2022-10-22T12:07:01.910Z,98342.00
2022-10-22T12:09:34.624Z,98347.81
2022-10-22T12:12:16.232Z,98350.66
2022-10-22T12:14:58.090Z,98349.69
2022-10-22T12:17:32.561Z,98351.66
2022-10-22T12:20:17.775Z,98353.63
2022-10-22T12:22:54.362Z,98351.41
2022-10-22T12:25:35.663Z,98353.91
2022-10-22T12:28:38.353Z,98350.03
2022-10-22T12:31:23.295Z,98345.25
2022-10-22T12:33:58.816Z,98359.00
2022-10-22T12:36:45.334Z,98359.78
2022-10-22T12:39:19.024Z,98351.63
2022-10-22T12:42:00.388Z,98356.63
2022-10-22T12:44:30.791Z,98355.94
2022-10-22T12:47:01.378Z,98359.97
2022-10-22T12:49:47.303Z,98368.97
2022-10-22T12:52:21.733Z,98374.25
2022-10-22T12:54:54.859Z,98373.78
2022-10-22T12:57:27.011Z,98375.63
2022-10-22T12:59:56.579Z,98379.03
2022-10-22T13:02:29.540Z,98370.31
2022-10-22T13:05:23.760Z,98373.59
2022-10-22T13:07:55.377Z,98367.81
2022-10-22T13:10:28.140Z,98366.00
2022-10-22T13:13:02.216Z,98378.13
2022-10-22T13:15:38.827Z,98375.63
2022-10-22T13:18:19.021Z,98382.91
2022-10-22T13:20:59.072Z,98370.31
2022-10-22T13:23:31.362Z,98378.84
2022-10-22T13:26:04.730Z,98381.66
2022-10-22T13:28:35.335Z,98382.19
2022-10-22T13:31:16.402Z,98380.94
2022-10-22T13:33:48.178Z,98384.09
2022-10-22T13:36:18.292Z,98392.09
2022-10-22T13:38:48.445Z,98390.03
2022-10-22T13:41:23.268Z,98387.97
2022-10-22T13:43:55.455Z,98389.06
2022-10-22T13:46:26.146Z,98390.63
2022-10-22T13:48:58.800Z,98393.63
2022-10-22T13:51:35.209Z,98403.44
2022-10-22T13:54:10.498Z,98396.03
2022-10-22T13:56:39.855Z,98401.06
2022-10-22T13:59:11.073Z,98401.59
2022-10-22T14:01:40.812Z,98401.69
2022-10-22T14:04:14.682Z,98397.28
2022-10-22T14:06:44.024Z,98411.94
2022-10-22T14:09:17.281Z,98403.66
2022-10-22T14:11:46.407Z,98410.28
2022-10-22T14:14:17.376Z,98415.00
2022-10-22T14:16:46.603Z,98419.56
2022-10-22T14:19:18.761Z,98421.25
2022-10-22T14:21:49.236Z,98420.25
2022-10-22T14:24:18.416Z,98423.97
2022-10-22T14:26:47.560Z,98433.00
2022-10-22T14:29:18.445Z,98429.81
2022-10-22T14:31:47.484Z,98441.97
2022-10-22T14:34:17.576Z,98451.78
2022-10-22T14:36:46.741Z,98451.84
2022-10-22T14:39:17.132Z,98451.13
2022-10-22T14:41:46.449Z,98446.69
2022-10-22T14:44:16.973Z,98453.69
2022-10-22T14:46:46.816Z,98453.78
2022-10-22T14:49:15.915Z,98467.53
2022-10-22T14:51:44.954Z,98470.00
2022-10-22T14:54:14.021Z,98465.94
2022-10-22T14:56:43.201Z,98465.56
2022-10-22T14:59:12.289Z,98457.19
2022-10-22T15:01:42.968Z,98458.84
2022-10-22T15:04:12.056Z,98458.47
2022-10-22T15:06:41.565Z,98444.34
2022-10-22T15:09:10.761Z,98464.13
2022-10-22T15:11:39.967Z,98459.38
2022-10-22T15:14:09.287Z,98467.50
2022-10-22T15:16:38.321Z,98480.03
2022-10-22T15:19:08.842Z,98472.78
2022-10-22T15:21:38.077Z,98471.19
2022-10-22T15:24:07.681Z,98468.00
2022-10-22T15:26:36.753Z,98466.41
2022-10-22T15:29:06.264Z,98467.63
2022-10-22T15:31:50.721Z,98472.03
2022-10-22T15:34:23.342Z,98484.28
2022-10-22T15:36:53.090Z,98492.00
2022-10-22T15:39:23.326Z,98489.59
2022-10-22T15:41:53.349Z,98485.13
2022-10-22T15:44:25.613Z,98473.03
2022-10-22T15:46:56.023Z,98474.59
2022-10-22T15:49:28.756Z,98481.06
2022-10-22T15:51:59.772Z,98464.81
2022-10-22T15:54:31.091Z,98449.44
2022-10-22T15:57:03.587Z,98445.03
2022-10-22T15:59:32.711Z,98444.72
2022-10-22T16:02:01.776Z,98448.00
2022-10-22T16:04:32.276Z,98444.78
2022-10-22T16:07:01.359Z,98442.47
2022-10-22T16:09:30.475Z,98451.44
2022-10-22T16:11:59.644Z,98474.91
2022-10-22T16:14:29.149Z,98498.34
2022-10-22T16:16:59.641Z,98516.91
2022-10-22T16:19:28.874Z,98520.97
2022-10-22T16:22:02.212Z,98533.97
2022-10-22T16:24:31.262Z,98525.28
2022-10-22T16:27:00.410Z,98532.31
2022-10-22T16:29:29.387Z,98528.09
2022-10-22T16:31:58.456Z,98542.69
2022-10-22T16:34:28.387Z,98556.34
2022-10-22T16:36:58.839Z,98556.50
2022-10-22T16:39:27.887Z,98561.56
2022-10-22T16:41:56.911Z,98567.28
2022-10-22T16:44:25.926Z,98570.84
2022-10-22T16:46:55.188Z,98562.31
2022-10-22T16:49:24.545Z,98556.69
2022-10-22T16:51:53.615Z,98565.56
2022-10-22T16:54:24.082Z,98576.06
2022-10-22T16:56:53.111Z,98577.00
2022-10-22T16:59:22.151Z,98574.41
2022-10-22T17:01:51.227Z,98564.44
2022-10-22T17:04:20.280Z,98567.19
2022-10-22T17:06:49.395Z,98569.06
2022-10-22T17:09:18.565Z,98567.63
2022-10-22T17:11:49.072Z,98574.63
2022-10-22T17:14:18.080Z,98578.94
2022-10-22T17:16:48.947Z,98586.19
2022-10-22T17:19:17.961Z,98582.53
2022-10-22T17:21:48.737Z,98582.91
2022-10-22T17:24:18.441Z,98584.69
2022-10-22T17:26:49.022Z,98587.25
2022-10-22T17:29:18.132Z,98583.97
2022-10-22T17:31:47.185Z,98583.16
2022-10-22T17:34:18.508Z,98594.63
2022-10-22T17:36:47.571Z,98586.38
2022-10-22T17:39:19.615Z,98590.50
2022-10-22T17:41:50.062Z,98599.53
2022-10-22T17:44:19.706Z,98609.69
2022-10-22T17:46:49.726Z,98606.09
2022-10-22T17:49:21.450Z,98606.09
2022-10-22T17:51:50.583Z,98601.66
2022-10-22T17:54:19.654Z,98617.28
2022-10-22T17:56:50.118Z,98624.84
2022-10-22T17:59:19.902Z,98611.94
2022-10-22T18:01:49.020Z,98617.84
2022-10-22T18:04:20.665Z,98613.72
2022-10-22T18:06:50.089Z,98619.69
2022-10-22T18:09:20.240Z,98618.50
2022-10-22T18:11:52.989Z,98617.34
2022-10-22T18:14:23.961Z,98619.44
2022-10-22T18:16:54.584Z,98615.56
2022-10-22T18:19:24.666Z,98620.41
2022-10-22T18:21:53.764Z,98622.84
2022-10-22T18:24:23.174Z,98634.88
2022-10-22T18:26:53.577Z,98621.19
2022-10-22T18:29:22.644Z,98633.59
2022-10-22T18:31:52.516Z,98626.22
2022-10-22T18:34:23.849Z,98636.28
2022-10-22T18:36:53.333Z,98637.94
2022-10-22T18:39:22.423Z,98634.50
2022-10-22T18:41:51.445Z,98643.06
2022-10-22T18:44:23.064Z,98641.13
2022-10-22T18:46:52.448Z,98646.88
2022-10-22T18:49:21.425Z,98649.72
2022-10-22T18:51:52.991Z,98664.22
2022-10-22T18:54:23.880Z,98659.47
2022-10-22T18:56:55.514Z,98669.47
2022-10-22T18:59:28.800Z,98677.06
2022-10-22T19:01:59.587Z,98671.41
2022-10-22T19:04:33.257Z,98681.88
2022-10-22T19:07:02.411Z,98683.50
2022-10-22T19:09:31.590Z,98688.41
2022-10-22T19:12:00.908Z,98685.25
2022-10-22T19:14:31.400Z,98693.31
2022-10-22T19:17:00.390Z,98694.13
2022-10-22T19:19:29.485Z,98695.72
2022-10-22T19:21:59.561Z,98701.34
2022-10-22T19:24:29.246Z,98715.81
2022-10-22T19:26:58.308Z,98710.63
2022-10-22T19:29:27.392Z,98714.63
2022-10-22T19:31:57.818Z,98714.25
2022-10-22T19:34:26.921Z,98724.72
2022-10-22T19:36:55.941Z,98728.28
2022-10-22T19:39:24.942Z,98710.63
2022-10-22T19:41:54.006Z,98710.22
2022-10-22T19:44:23.033Z,98716.22
2022-10-22T19:46:52.084Z,98721.47
2022-10-22T19:49:23.244Z,98725.13
2022-10-22T19:51:52.328Z,98724.75
2022-10-22T19:54:21.423Z,98725.59
2022-10-22T19:56:51.366Z,98729.63
2022-10-22T19:59:22.829Z,98736.03
2022-10-22T20:01:51.908Z,98737.63
2022-10-22T20:04:25.138Z,98746.47
2022-10-22T20:06:54.181Z,98739.69
2022-10-22T20:09:23.298Z,98744.09
2022-10-22T20:11:52.515Z,98737.69
2022-10-22T20:14:21.560Z,98744.13
2022-10-22T20:16:50.616Z,98748.91
2022-10-22T20:19:19.792Z,98739.28
2022-10-22T20:21:50.592Z,98743.28
2022-10-22T20:24:19.854Z,98746.13
2022-10-22T20:26:49.151Z,98744.09
2022-10-22T20:29:19.565Z,98748.91
2022-10-22T20:31:49.289Z,98750.53
2022-10-22T20:34:18.572Z,98740.88
2022-10-22T20:36:49.058Z,98751.28
2022-10-22T20:39:19.045Z,98746.47
2022-10-22T20:41:50.679Z,98748.88
2022-10-22T20:44:20.488Z,98753.69
2022-10-22T20:46:49.579Z,98761.72
2022-10-22T20:49:20.869Z,98756.91
2022-10-22T20:51:51.384Z,98766.50
2022-10-22T20:54:20.424Z,98771.34
2022-10-22T20:56:49.635Z,98768.13
2022-10-22T20:59:18.848Z,98766.53
2022-10-22T21:01:49.668Z,98771.75
2022-10-22T21:04:20.785Z,98775.78
2022-10-22T21:06:52.372Z,98770.56
2022-10-22T21:09:22.100Z,98770.56
2022-10-22T21:14:23.411Z,98780.97
2022-10-22T21:16:53.382Z,98783.38
2022-10-22T21:19:23.635Z,98779.34
2022-10-22T21:21:54.523Z,98788.56
2022-10-22T21:24:26.355Z,98796.19
2022-10-22T21:26:55.546Z,98793.00
2022-10-22T21:29:24.583Z,98792.56
2022-10-22T21:31:54.729Z,98784.97
2022-10-22T21:34:23.741Z,98795.41
2022-10-22T21:36:54.253Z,98785.78
2022-10-22T21:39:23.251Z,98796.19
2022-10-22T21:41:52.287Z,98798.63
2022-10-22T21:44:21.372Z,98799.03
2022-10-22T21:46:50.376Z,98799.44
2022-10-22T21:49:19.399Z,98799.44
2022-10-22T21:51:48.545Z,98797.84
2022-10-22T21:54:19.097Z,98798.66
2022-10-22T21:56:49.031Z,98792.63
2022-10-22T21:59:18.168Z,98792.22
2022-10-22T22:01:47.242Z,98780.22
2022-10-22T22:04:16.450Z,98782.59
2022-10-22T22:06:45.468Z,98790.63
2022-10-22T22:09:14.594Z,98789.03
2022-10-22T22:11:45.106Z,98791.41
2022-10-22T22:14:14.794Z,98798.63
2022-10-22T22:16:43.912Z,98787.41
2022-10-22T22:19:13.948Z,98797.06
2022-10-22T22:21:43.232Z,98789.44
2022-10-22T22:24:13.914Z,98792.66
2022-10-22T22:26:44.340Z,98789.81
2022-10-22T22:29:13.398Z,98790.63
2022-10-22T22:31:43.591Z,98786.59
2022-10-22T22:34:15.201Z,98786.59
2022-10-22T22:36:46.630Z,98778.19
2022-10-22T22:39:17.558Z,98789.81
2022-10-22T22:41:48.681Z,98788.19
2022-10-22T22:44:17.834Z,98784.22
2022-10-22T22:46:46.868Z,98793.03
2022-10-22T22:49:15.951Z,98778.59
2022-10-22T22:51:45.202Z,98794.22
2022-10-22T22:54:14.228Z,98790.63
2022-10-22T22:56:43.332Z,98780.16
2022-10-22T22:59:13.759Z,98778.97
2022-10-22T23:01:45.415Z,98784.16
2022-10-22T23:04:19.127Z,98787.38
2022-10-22T23:06:48.262Z,98788.19
2022-10-22T23:11:50.692Z,98791.00
2022-10-22T23:14:21.844Z,98786.53
2022-10-22T23:16:54.221Z,98780.09
2022-10-22T23:19:24.650Z,98783.38
2022-10-22T23:21:55.664Z,98789.00
2022-10-22T23:24:27.128Z,98790.16
2022-10-22T23:27:00.731Z,98786.16
2022-10-22T23:29:33.791Z,98785.75
2022-10-22T23:32:05.511Z,98777.34
2022-10-22T23:34:34.685Z,98786.16
2022-10-22T23:37:03.772Z,98776.53
2022-10-22T23:39:33.003Z,98780.16
2022-10-22T23:42:02.108Z,98778.97
2022-10-22T23:44:32.725Z,98773.75
2022-10-22T23:47:01.914Z,98764.94
2022-10-22T23:49:31.103Z,98775.34
2022-10-22T23:52:00.186Z,98774.91
2022-10-22T23:54:32.031Z,98773.69
2022-10-22T23:57:01.136Z,98778.53
2022-10-22T23:59:30.244Z,98780.16
